sensor_id;sensor_type;location;lat;lon;timestamp;P1;durP1;ratioP1;P2;durP2;ratioP2
59099;SDS011;44884;52.730;6.964;2022-09-12T00:01:57;2.72;;;2.53;;
59099;SDS011;44884;52.730;6.964;2022-09-12T00:04:23;2.83;;;2.25;;
59099;SDS011;44884;52.730;6.964;2022-09-12T00:06:50;3.00;;;2.10;;
59099;SDS011;44884;52.730;6.964;2022-09-12T00:09:16;2.30;;;2.10;;
59099;SDS011;44884;52.730;6.964;2022-09-12T00:11:43;2.50;;;2.30;;
59099;SDS011;44884;52.730;6.964;2022-09-12T00:14:11;2.17;;;2.05;;
59099;SDS011;44884;52.730;6.964;2022-09-12T00:16:38;3.17;;;2.35;;
59099;SDS011;44884;52.730;6.964;2022-09-12T00:19:04;2.47;;;2.28;;
59099;SDS011;44884;52.730;6.964;2022-09-12T00:21:34;3.05;;;2.85;;
59099;SDS011;44884;52.730;6.964;2022-09-12T00:24:01;2.20;;;2.08;;
59099;SDS011;44884;52.730;6.964;2022-09-12T00:26:27;2.22;;;2.03;;
59099;SDS011;44884;52.730;6.964;2022-09-12T00:28:53;2.78;;;2.53;;
59099;SDS011;44884;52.730;6.964;2022-09-12T00:31:21;2.35;;;2.20;;
59099;SDS011;44884;52.730;6.964;2022-09-12T00:33:48;2.47;;;2.28;;
59099;SDS011;44884;52.730;6.964;2022-09-12T00:36:15;2.42;;;2.22;;
59099;SDS011;44884;52.730;6.964;2022-09-12T00:38:42;2.67;;;2.47;;
59099;SDS011;44884;52.730;6.964;2022-09-12T00:41:50;2.47;;;2.28;;
59099;SDS011;44884;52.730;6.964;2022-09-12T00:43:59;2.90;;;2.45;;
59099;SDS011;44884;52.730;6.964;2022-09-12T00:49:06;2.70;;;2.50;;
59099;SDS011;44884;52.730;6.964;2022-09-12T00:51:32;2.15;;;2.05;;
59099;SDS011;44884;52.730;6.964;2022-09-12T00:54:01;2.47;;;2.20;;
59099;SDS011;44884;52.730;6.964;2022-09-12T00:56:27;2.72;;;2.53;;
59099;SDS011;44884;52.730;6.964;2022-09-12T00:58:59;2.60;;;2.40;;
59099;SDS011;44884;52.730;6.964;2022-09-12T01:01:26;2.33;;;2.13;;
59099;SDS011;44884;52.730;6.964;2022-09-12T01:03:52;2.60;;;2.40;;
59099;SDS011;44884;52.730;6.964;2022-09-12T01:06:24;2.58;;;2.38;;
59099;SDS011;44884;52.730;6.964;2022-09-12T01:08:51;2.58;;;2.38;;
59099;SDS011;44884;52.730;6.964;2022-09-12T01:11:17;2.25;;;2.15;;
59099;SDS011;44884;52.730;6.964;2022-09-12T01:13:44;2.70;;;2.50;;
59099;SDS011;44884;52.730;6.964;2022-09-12T01:16:10;3.40;;;2.45;;
59099;SDS011;44884;52.730;6.964;2022-09-12T01:18:54;2.58;;;2.38;;
59099;SDS011;44884;52.730;6.964;2022-09-12T01:27:00;2.92;;;2.65;;
59099;SDS011;44884;52.730;6.964;2022-09-12T01:35:24;2.75;;;2.55;;
59099;SDS011;44884;52.730;6.964;2022-09-12T01:40:47;2.53;;;2.33;;
59099;SDS011;44884;52.730;6.964;2022-09-12T01:45:58;2.90;;;2.70;;
59099;SDS011;44884;52.730;6.964;2022-09-12T01:48:32;2.83;;;2.58;;
59099;SDS011;44884;52.730;6.964;2022-09-12T01:53:27;2.97;;;2.78;;
59099;SDS011;44884;52.730;6.964;2022-09-12T01:56:08;2.97;;;2.72;;
59099;SDS011;44884;52.730;6.964;2022-09-12T01:58:46;3.55;;;3.25;;
59099;SDS011;44884;52.730;6.964;2022-09-12T02:01:16;2.47;;;2.28;;
59099;SDS011;44884;52.730;6.964;2022-09-12T02:03:49;2.70;;;2.50;;
59099;SDS011;44884;52.730;6.964;2022-09-12T02:06:26;3.17;;;2.97;;
59099;SDS011;44884;52.730;6.964;2022-09-12T02:09:10;2.83;;;2.63;;
59099;SDS011;44884;52.730;6.964;2022-09-12T02:11:37;2.40;;;2.30;;
59099;SDS011;44884;52.730;6.964;2022-09-12T02:14:07;2.75;;;2.55;;
59099;SDS011;44884;52.730;6.964;2022-09-12T02:16:43;3.38;;;3.08;;
59099;SDS011;44884;52.730;6.964;2022-09-12T02:19:17;3.08;;;2.78;;
59099;SDS011;44884;52.730;6.964;2022-09-12T02:21:52;3.40;;;3.10;;
59099;SDS011;44884;52.730;6.964;2022-09-12T02:24:18;3.10;;;2.80;;
59099;SDS011;44884;52.730;6.964;2022-09-12T02:26:46;2.72;;;2.53;;
59099;SDS011;44884;52.730;6.964;2022-09-12T02:29:14;2.70;;;2.50;;
59099;SDS011;44884;52.730;6.964;2022-09-12T02:39:14;5.03;;;2.70;;
59099;SDS011;44884;52.730;6.964;2022-09-12T02:41:44;2.65;;;2.45;;
59099;SDS011;44884;52.730;6.964;2022-09-12T02:44:11;3.65;;;3.35;;
59099;SDS011;44884;52.730;6.964;2022-09-12T02:46:38;3.35;;;3.05;;
59099;SDS011;44884;52.730;6.964;2022-09-12T02:49:05;2.67;;;2.47;;
59099;SDS011;44884;52.730;6.964;2022-09-12T02:51:31;3.15;;;2.85;;
59099;SDS011;44884;52.730;6.964;2022-09-12T02:53:57;2.83;;;2.63;;
59099;SDS011;44884;52.730;6.964;2022-09-12T02:56:27;3.45;;;3.25;;
59099;SDS011;44884;52.730;6.964;2022-09-12T02:58:54;3.35;;;3.05;;
59099;SDS011;44884;52.730;6.964;2022-09-12T03:03:53;3.22;;;2.92;;
59099;SDS011;44884;52.730;6.964;2022-09-12T03:09:05;3.10;;;2.80;;
59099;SDS011;44884;52.730;6.964;2022-09-12T03:11:42;3.63;;;3.33;;
59099;SDS011;44884;52.730;6.964;2022-09-12T03:14:31;3.25;;;3.03;;
59099;SDS011;44884;52.730;6.964;2022-09-12T03:17:09;2.75;;;2.55;;
59099;SDS011;44884;52.730;6.964;2022-09-12T03:22:27;2.78;;;2.58;;
59099;SDS011;44884;52.730;6.964;2022-09-12T03:24:57;3.53;;;3.22;;
59099;SDS011;44884;52.730;6.964;2022-09-12T03:27:31;3.22;;;2.92;;
59099;SDS011;44884;52.730;6.964;2022-09-12T03:29:58;3.03;;;2.72;;
59099;SDS011;44884;52.730;6.964;2022-09-12T03:35:06;3.88;;;3.10;;
59099;SDS011;44884;52.730;6.964;2022-09-12T03:37:32;3.17;;;2.97;;
59099;SDS011;44884;52.730;6.964;2022-09-12T03:39:58;2.85;;;2.65;;
59099;SDS011;44884;52.730;6.964;2022-09-12T03:42:25;3.03;;;2.80;;
59099;SDS011;44884;52.730;6.964;2022-09-12T03:44:51;2.95;;;2.75;;
59099;SDS011;44884;52.730;6.964;2022-09-12T03:47:17;3.55;;;3.25;;
59099;SDS011;44884;52.730;6.964;2022-09-12T03:49:43;3.70;;;3.40;;
59099;SDS011;44884;52.730;6.964;2022-09-12T03:52:09;2.92;;;2.72;;
59099;SDS011;44884;52.730;6.964;2022-09-12T03:54:35;3.00;;;2.80;;
59099;SDS011;44884;52.730;6.964;2022-09-12T03:57:01;3.50;;;3.20;;
59099;SDS011;44884;52.730;6.964;2022-09-12T03:59:26;3.72;;;3.42;;
59099;SDS011;44884;52.730;6.964;2022-09-12T04:01:52;2.70;;;2.50;;
59099;SDS011;44884;52.730;6.964;2022-09-12T04:04:19;2.50;;;2.30;;
59099;SDS011;44884;52.730;6.964;2022-09-12T04:06:45;2.90;;;2.70;;
59099;SDS011;44884;52.730;6.964;2022-09-12T04:09:10;3.50;;;3.20;;
59099;SDS011;44884;52.730;6.964;2022-09-12T04:11:36;3.25;;;2.95;;
59099;SDS011;44884;52.730;6.964;2022-09-12T04:14:03;2.88;;;2.65;;
59099;SDS011;44884;52.730;6.964;2022-09-12T04:16:29;3.47;;;2.97;;
59099;SDS011;44884;52.730;6.964;2022-09-12T04:18:56;2.72;;;2.53;;
59099;SDS011;44884;52.730;6.964;2022-09-12T04:21:22;3.70;;;3.40;;
59099;SDS011;44884;52.730;6.964;2022-09-12T04:23:48;3.45;;;3.15;;
59099;SDS011;44884;52.730;6.964;2022-09-12T04:26:15;3.45;;;2.88;;
59099;SDS011;44884;52.730;6.964;2022-09-12T04:28:42;3.08;;;2.85;;
59099;SDS011;44884;52.730;6.964;2022-09-12T04:31:12;3.40;;;3.20;;
59099;SDS011;44884;52.730;6.964;2022-09-12T04:33:39;3.00;;;2.80;;
59099;SDS011;44884;52.730;6.964;2022-09-12T04:36:07;2.97;;;2.78;;
59099;SDS011;44884;52.730;6.964;2022-09-12T04:38:34;3.50;;;3.20;;
59099;SDS011;44884;52.730;6.964;2022-09-12T04:41:00;2.97;;;2.78;;
59099;SDS011;44884;52.730;6.964;2022-09-12T04:43:26;3.45;;;3.15;;
59099;SDS011;44884;52.730;6.964;2022-09-12T04:45:52;3.20;;;3.00;;
59099;SDS011;44884;52.730;6.964;2022-09-12T04:48:18;3.22;;;2.92;;
59099;SDS011;44884;52.730;6.964;2022-09-12T04:50:44;3.30;;;3.00;;
59099;SDS011;44884;52.730;6.964;2022-09-12T04:53:10;3.80;;;3.40;;
59099;SDS011;44884;52.730;6.964;2022-09-12T04:55:36;3.53;;;3.22;;
59099;SDS011;44884;52.730;6.964;2022-09-12T04:58:02;3.05;;;2.85;;
59099;SDS011;44884;52.730;6.964;2022-09-12T05:00:28;3.40;;;3.10;;
59099;SDS011;44884;52.730;6.964;2022-09-12T05:02:54;3.28;;;3.03;;
59099;SDS011;44884;52.730;6.964;2022-09-12T05:05:20;2.97;;;2.78;;
59099;SDS011;44884;52.730;6.964;2022-09-12T05:07:46;3.38;;;3.03;;
59099;SDS011;44884;52.730;6.964;2022-09-12T05:10:12;3.15;;;2.95;;
59099;SDS011;44884;52.730;6.964;2022-09-12T05:12:38;3.13;;;2.90;;
59099;SDS011;44884;52.730;6.964;2022-09-12T05:15:05;4.22;;;3.63;;
59099;SDS011;44884;52.730;6.964;2022-09-12T05:17:31;3.75;;;3.45;;
59099;SDS011;44884;52.730;6.964;2022-09-12T05:19:57;2.97;;;2.78;;
59099;SDS011;44884;52.730;6.964;2022-09-12T05:22:24;3.47;;;3.17;;
59099;SDS011;44884;52.730;6.964;2022-09-12T05:24:50;3.67;;;3.30;;
59099;SDS011;44884;52.730;6.964;2022-09-12T05:27:16;3.20;;;3.00;;
59099;SDS011;44884;52.730;6.964;2022-09-12T05:29:42;3.13;;;2.83;;
59099;SDS011;44884;52.730;6.964;2022-09-12T05:32:08;3.38;;;3.08;;
59099;SDS011;44884;52.730;6.964;2022-09-12T05:34:34;3.53;;;3.28;;
59099;SDS011;44884;52.730;6.964;2022-09-12T05:37:01;4.20;;;3.90;;
59099;SDS011;44884;52.730;6.964;2022-09-12T05:39:27;2.92;;;2.72;;
59099;SDS011;44884;52.730;6.964;2022-09-12T05:41:53;3.58;;;3.28;;
59099;SDS011;44884;52.730;6.964;2022-09-12T05:44:20;3.28;;;3.00;;
59099;SDS011;44884;52.730;6.964;2022-09-12T05:46:46;3.50;;;3.20;;
59099;SDS011;44884;52.730;6.964;2022-09-12T05:49:15;3.20;;;3.00;;
59099;SDS011;44884;52.730;6.964;2022-09-12T05:51:42;3.55;;;3.25;;
59099;SDS011;44884;52.730;6.964;2022-09-12T05:54:10;4.00;;;3.33;;
59099;SDS011;44884;52.730;6.964;2022-09-12T05:56:37;3.22;;;3.03;;
59099;SDS011;44884;52.730;6.964;2022-09-12T05:59:04;3.47;;;3.17;;
59099;SDS011;44884;52.730;6.964;2022-09-12T06:01:31;3.20;;;2.90;;
59099;SDS011;44884;52.730;6.964;2022-09-12T06:03:58;3.15;;;2.95;;
59099;SDS011;44884;52.730;6.964;2022-09-12T06:06:25;3.80;;;3.50;;
59099;SDS011;44884;52.730;6.964;2022-09-12T06:08:52;3.47;;;3.10;;
59099;SDS011;44884;52.730;6.964;2022-09-12T06:11:23;3.50;;;3.20;;
59099;SDS011;44884;52.730;6.964;2022-09-12T06:13:53;3.95;;;3.22;;
59099;SDS011;44884;52.730;6.964;2022-09-12T06:16:21;2.97;;;2.72;;
59099;SDS011;44884;52.730;6.964;2022-09-12T06:18:49;3.33;;;3.03;;
59099;SDS011;44884;52.730;6.964;2022-09-12T06:21:16;3.20;;;2.97;;
59099;SDS011;44884;52.730;6.964;2022-09-12T06:23:42;3.28;;;2.97;;
59099;SDS011;44884;52.730;6.964;2022-09-12T06:26:10;3.50;;;3.20;;
59099;SDS011;44884;52.730;6.964;2022-09-12T06:28:37;3.33;;;3.03;;
59099;SDS011;44884;52.730;6.964;2022-09-12T06:31:05;3.17;;;2.97;;
59099;SDS011;44884;52.730;6.964;2022-09-12T06:33:34;3.45;;;3.15;;
59099;SDS011;44884;52.730;6.964;2022-09-12T06:36:05;3.50;;;3.20;;
59099;SDS011;44884;52.730;6.964;2022-09-12T06:38:31;3.10;;;2.88;;
59099;SDS011;44884;52.730;6.964;2022-09-12T06:40:58;3.30;;;2.65;;
59099;SDS011;44884;52.730;6.964;2022-09-12T06:43:24;3.40;;;3.10;;
59099;SDS011;44884;52.730;6.964;2022-09-12T06:45:51;3.60;;;3.30;;
59099;SDS011;44884;52.730;6.964;2022-09-12T06:48:17;3.92;;;3.20;;
59099;SDS011;44884;52.730;6.964;2022-09-12T06:50:43;3.38;;;3.08;;
59099;SDS011;44884;52.730;6.964;2022-09-12T06:53:19;3.22;;;2.95;;
59099;SDS011;44884;52.730;6.964;2022-09-12T06:55:45;3.35;;;3.05;;
59099;SDS011;44884;52.730;6.964;2022-09-12T06:58:12;3.10;;;2.90;;
59099;SDS011;44884;52.730;6.964;2022-09-12T07:00:38;4.88;;;3.58;;
59099;SDS011;44884;52.730;6.964;2022-09-12T07:03:04;4.03;;;3.72;;
59099;SDS011;44884;52.730;6.964;2022-09-12T07:05:32;4.03;;;3.08;;
59099;SDS011;44884;52.730;6.964;2022-09-12T07:07:58;3.20;;;3.00;;
59099;SDS011;44884;52.730;6.964;2022-09-12T07:10:24;3.35;;;3.00;;
59099;SDS011;44884;52.730;6.964;2022-09-12T07:12:52;3.53;;;3.22;;
59099;SDS011;44884;52.730;6.964;2022-09-12T07:15:18;3.08;;;2.88;;
59099;SDS011;44884;52.730;6.964;2022-09-12T07:17:44;3.92;;;3.38;;
59099;SDS011;44884;52.730;6.964;2022-09-12T07:20:10;14.73;;;11.40;;
59099;SDS011;44884;52.730;6.964;2022-09-12T07:22:36;14.07;;;12.55;;
59099;SDS011;44884;52.730;6.964;2022-09-12T07:25:02;15.65;;;12.50;;
59099;SDS011;44884;52.730;6.964;2022-09-12T07:27:29;16.33;;;13.25;;
59099;SDS011;44884;52.730;6.964;2022-09-12T07:29:55;15.52;;;10.95;;
59099;SDS011;44884;52.730;6.964;2022-09-12T07:32:21;14.82;;;11.30;;
59099;SDS011;44884;52.730;6.964;2022-09-12T07:34:47;14.15;;;10.63;;
59099;SDS011;44884;52.730;6.964;2022-09-12T07:37:14;19.00;;;13.00;;
59099;SDS011;44884;52.730;6.964;2022-09-12T07:39:40;16.45;;;12.88;;
59099;SDS011;44884;52.730;6.964;2022-09-12T07:42:06;16.55;;;13.23;;
59099;SDS011;44884;52.730;6.964;2022-09-12T07:44:32;18.90;;;13.05;;
59099;SDS011;44884;52.730;6.964;2022-09-12T07:46:58;18.58;;;13.80;;
59099;SDS011;44884;52.730;6.964;2022-09-12T07:49:24;16.77;;;13.32;;
59099;SDS011;44884;52.730;6.964;2022-09-12T07:51:50;20.90;;;12.93;;
59099;SDS011;44884;52.730;6.964;2022-09-12T07:54:17;15.15;;;12.65;;
59099;SDS011;44884;52.730;6.964;2022-09-12T07:56:43;19.65;;;13.00;;
59099;SDS011;44884;52.730;6.964;2022-09-12T07:59:09;17.67;;;11.77;;
59099;SDS011;44884;52.730;6.964;2022-09-12T08:01:35;25.88;;;13.85;;
59099;SDS011;44884;52.730;6.964;2022-09-12T08:04:03;14.07;;;12.57;;
59099;SDS011;44884;52.730;6.964;2022-09-12T08:06:29;14.20;;;11.70;;
59099;SDS011;44884;52.730;6.964;2022-09-12T08:08:56;17.27;;;13.27;;
59099;SDS011;44884;52.730;6.964;2022-09-12T08:11:23;16.20;;;12.07;;
59099;SDS011;44884;52.730;6.964;2022-09-12T08:13:50;16.52;;;12.27;;
59099;SDS011;44884;52.730;6.964;2022-09-12T08:16:17;14.55;;;11.20;;
59099;SDS011;44884;52.730;6.964;2022-09-12T08:18:45;14.77;;;11.50;;
59099;SDS011;44884;52.730;6.964;2022-09-12T08:21:32;18.50;;;14.18;;
59099;SDS011;44884;52.730;6.964;2022-09-12T08:23:58;20.48;;;14.27;;
59099;SDS011;44884;52.730;6.964;2022-09-12T08:26:25;19.67;;;13.90;;
59099;SDS011;44884;52.730;6.964;2022-09-12T08:28:51;18.77;;;13.60;;
59099;SDS011;44884;52.730;6.964;2022-09-12T08:31:18;18.38;;;12.68;;
59099;SDS011;44884;52.730;6.964;2022-09-12T08:33:45;16.65;;;12.13;;
59099;SDS011;44884;52.730;6.964;2022-09-12T08:38:38;14.20;;;11.68;;
59099;SDS011;44884;52.730;6.964;2022-09-12T08:41:10;16.75;;;12.45;;
59099;SDS011;44884;52.730;6.964;2022-09-12T08:46:25;17.63;;;12.85;;
59099;SDS011;44884;52.730;6.964;2022-09-12T08:48:52;17.48;;;12.77;;
59099;SDS011;44884;52.730;6.964;2022-09-12T08:51:20;15.85;;;12.70;;
59099;SDS011;44884;52.730;6.964;2022-09-12T08:53:48;16.38;;;13.02;;
59099;SDS011;44884;52.730;6.964;2022-09-12T08:56:18;17.10;;;12.63;;
59099;SDS011;44884;52.730;6.964;2022-09-12T08:58:44;17.38;;;13.15;;
59099;SDS011;44884;52.730;6.964;2022-09-12T09:11:08;18.60;;;13.85;;
59099;SDS011;44884;52.730;6.964;2022-09-12T09:14:01;16.10;;;12.75;;
59099;SDS011;44884;52.730;6.964;2022-09-12T09:16:48;18.95;;;13.07;;
59099;SDS011;44884;52.730;6.964;2022-09-12T09:19:19;16.13;;;12.52;;
59099;SDS011;44884;52.730;6.964;2022-09-12T09:21:50;18.40;;;13.60;;
59099;SDS011;44884;52.730;6.964;2022-09-12T09:24:20;17.58;;;14.07;;
59099;SDS011;44884;52.730;6.964;2022-09-12T09:26:56;19.65;;;13.85;;
59099;SDS011;44884;52.730;6.964;2022-09-12T09:29:23;19.80;;;14.48;;
59099;SDS011;44884;52.730;6.964;2022-09-12T09:31:51;21.65;;;15.43;;
59099;SDS011;44884;52.730;6.964;2022-09-12T09:34:19;23.05;;;15.68;;
59099;SDS011;44884;52.730;6.964;2022-09-12T09:37:06;23.63;;;16.00;;
59099;SDS011;44884;52.730;6.964;2022-09-12T09:39:38;22.17;;;15.25;;
59099;SDS011;44884;52.730;6.964;2022-09-12T09:42:25;21.20;;;16.08;;
59099;SDS011;44884;52.730;6.964;2022-09-12T09:44:52;25.65;;;16.52;;
59099;SDS011;44884;52.730;6.964;2022-09-12T09:47:20;26.33;;;18.17;;
59099;SDS011;44884;52.730;6.964;2022-09-12T09:49:47;25.35;;;17.52;;
59099;SDS011;44884;52.730;6.964;2022-09-12T09:52:23;27.30;;;18.77;;
59099;SDS011;44884;52.730;6.964;2022-09-12T09:54:56;24.95;;;17.08;;
59099;SDS011;44884;52.730;6.964;2022-09-12T10:05:35;23.20;;;17.52;;
59099;SDS011;44884;52.730;6.964;2022-09-12T10:08:09;26.90;;;20.38;;
59099;SDS011;44884;52.730;6.964;2022-09-12T10:10:35;31.30;;;18.63;;
59099;SDS011;44884;52.730;6.964;2022-09-12T10:13:05;29.10;;;21.00;;
59099;SDS011;44884;52.730;6.964;2022-09-12T10:15:33;27.30;;;18.42;;
59099;SDS011;44884;52.730;6.964;2022-09-12T10:17:59;27.77;;;19.42;;
59099;SDS011;44884;52.730;6.964;2022-09-12T10:22:59;20.08;;;15.55;;
59099;SDS011;44884;52.730;6.964;2022-09-12T10:25:25;26.23;;;17.15;;
59099;SDS011;44884;52.730;6.964;2022-09-12T10:27:52;22.33;;;15.50;;
59099;SDS011;44884;52.730;6.964;2022-09-12T10:30:19;26.70;;;17.15;;
59099;SDS011;44884;52.730;6.964;2022-09-12T10:32:49;24.85;;;16.80;;
59099;SDS011;44884;52.730;6.964;2022-09-12T10:35:22;21.90;;;15.50;;
59099;SDS011;44884;52.730;6.964;2022-09-12T10:38:10;21.55;;;15.82;;
59099;SDS011;44884;52.730;6.964;2022-09-12T10:40:38;24.35;;;16.00;;
59099;SDS011;44884;52.730;6.964;2022-09-12T10:43:16;27.42;;;18.40;;
59099;SDS011;44884;52.730;6.964;2022-09-12T10:45:42;22.58;;;16.75;;
59099;SDS011;44884;52.730;6.964;2022-09-12T10:48:23;26.58;;;16.60;;
59099;SDS011;44884;52.730;6.964;2022-09-12T10:50:49;25.30;;;14.60;;
59099;SDS011;44884;52.730;6.964;2022-09-12T10:53:26;22.10;;;14.80;;
59099;SDS011;44884;52.730;6.964;2022-09-12T10:56:03;21.60;;;16.17;;
59099;SDS011;44884;52.730;6.964;2022-09-12T11:01:23;18.08;;;13.75;;
59099;SDS011;44884;52.730;6.964;2022-09-12T11:04:05;19.55;;;14.07;;
59099;SDS011;44884;52.730;6.964;2022-09-12T11:06:56;17.83;;;13.18;;
59099;SDS011;44884;52.730;6.964;2022-09-12T11:14:43;15.15;;;12.27;;
59099;SDS011;44884;52.730;6.964;2022-09-12T11:19:42;16.13;;;12.07;;
59099;SDS011;44884;52.730;6.964;2022-09-12T11:27:34;15.68;;;10.57;;
59099;SDS011;44884;52.730;6.964;2022-09-12T11:30:04;18.10;;;12.00;;
59099;SDS011;44884;52.730;6.964;2022-09-12T11:32:45;18.63;;;11.50;;
59099;SDS011;44884;52.730;6.964;2022-09-12T11:37:50;22.50;;;12.52;;
59099;SDS011;44884;52.730;6.964;2022-09-12T11:40:22;14.88;;;10.02;;
59099;SDS011;44884;52.730;6.964;2022-09-12T11:42:52;13.27;;;10.82;;
59099;SDS011;44884;52.730;6.964;2022-09-12T11:45:25;13.68;;;10.38;;
59099;SDS011;44884;52.730;6.964;2022-09-12T11:47:54;12.30;;;8.68;;
59099;SDS011;44884;52.730;6.964;2022-09-12T11:50:26;13.43;;;9.43;;
59099;SDS011;44884;52.730;6.964;2022-09-12T11:52:54;13.68;;;9.75;;
59099;SDS011;44884;52.730;6.964;2022-09-12T11:55:23;13.85;;;10.40;;
59099;SDS011;44884;52.730;6.964;2022-09-12T12:00:21;13.25;;;9.05;;
59099;SDS011;44884;52.730;6.964;2022-09-12T12:05:27;11.52;;;9.48;;
59099;SDS011;44884;52.730;6.964;2022-09-12T12:07:58;14.30;;;9.50;;
59099;SDS011;44884;52.730;6.964;2022-09-12T12:12:50;16.15;;;10.10;;
59099;SDS011;44884;52.730;6.964;2022-09-12T12:15:17;11.30;;;8.13;;
59099;SDS011;44884;52.730;6.964;2022-09-12T12:17:44;8.30;;;6.75;;
59099;SDS011;44884;52.730;6.964;2022-09-12T12:20:17;11.25;;;7.60;;
59099;SDS011;44884;52.730;6.964;2022-09-12T12:22:50;8.50;;;5.95;;
59099;SDS011;44884;52.730;6.964;2022-09-12T12:27:50;7.78;;;6.40;;
59099;SDS011;44884;52.730;6.964;2022-09-12T12:35:40;12.10;;;8.32;;
59099;SDS011;44884;52.730;6.964;2022-09-12T12:40:50;9.35;;;7.15;;
59099;SDS011;44884;52.730;6.964;2022-09-12T12:43:30;10.68;;;7.10;;
59099;SDS011;44884;52.730;6.964;2022-09-12T12:46:04;8.15;;;6.68;;
59099;SDS011;44884;52.730;6.964;2022-09-12T12:48:32;13.40;;;6.82;;
59099;SDS011;44884;52.730;6.964;2022-09-12T12:51:13;9.38;;;7.75;;
59099;SDS011;44884;52.730;6.964;2022-09-12T12:53:40;9.43;;;7.38;;
59099;SDS011;44884;52.730;6.964;2022-09-12T12:56:20;9.10;;;5.75;;
59099;SDS011;44884;52.730;6.964;2022-09-12T12:58:50;7.28;;;5.40;;
59099;SDS011;44884;52.730;6.964;2022-09-12T13:01:22;7.15;;;5.60;;
59099;SDS011;44884;52.730;6.964;2022-09-12T13:04:04;9.25;;;5.82;;
59099;SDS011;44884;52.730;6.964;2022-09-12T13:06:37;10.10;;;5.38;;
59099;SDS011;44884;52.730;6.964;2022-09-12T13:11:37;7.05;;;5.00;;
59099;SDS011;44884;52.730;6.964;2022-09-12T13:14:05;8.02;;;6.07;;
59099;SDS011;44884;52.730;6.964;2022-09-12T13:16:34;6.68;;;5.22;;
59099;SDS011;44884;52.730;6.964;2022-09-12T13:19:02;5.85;;;4.70;;
59099;SDS011;44884;52.730;6.964;2022-09-12T13:21:29;7.40;;;4.60;;
59099;SDS011;44884;52.730;6.964;2022-09-12T13:23:59;6.15;;;5.18;;
59099;SDS011;44884;52.730;6.964;2022-09-12T13:26:26;7.38;;;4.47;;
59099;SDS011;44884;52.730;6.964;2022-09-12T13:31:34;5.60;;;4.70;;
59099;SDS011;44884;52.730;6.964;2022-09-12T13:34:00;6.97;;;4.40;;
59099;SDS011;44884;52.730;6.964;2022-09-12T13:41:37;8.77;;;4.40;;
59099;SDS011;44884;52.730;6.964;2022-09-12T13:44:07;5.10;;;4.23;;
59099;SDS011;44884;52.730;6.964;2022-09-12T13:46:35;5.30;;;4.55;;
59099;SDS011;44884;52.730;6.964;2022-09-12T13:49:04;7.90;;;4.10;;
59099;SDS011;44884;52.730;6.964;2022-09-12T13:51:31;5.47;;;4.13;;
59099;SDS011;44884;52.730;6.964;2022-09-12T13:53:58;5.82;;;4.43;;
59099;SDS011;44884;52.730;6.964;2022-09-12T13:56:27;4.03;;;3.63;;
59099;SDS011;44884;52.730;6.964;2022-09-12T13:58:54;6.95;;;4.20;;
59099;SDS011;44884;52.730;6.964;2022-09-12T14:01:21;8.25;;;4.60;;
59099;SDS011;44884;52.730;6.964;2022-09-12T14:03:54;6.65;;;4.35;;
59099;SDS011;44884;52.730;6.964;2022-09-12T14:06:46;5.18;;;3.67;;
59099;SDS011;44884;52.730;6.964;2022-09-12T14:09:21;8.52;;;4.70;;
59099;SDS011;44884;52.730;6.964;2022-09-12T14:11:48;12.98;;;4.35;;
59099;SDS011;44884;52.730;6.964;2022-09-12T14:16:51;4.70;;;4.20;;
59099;SDS011;44884;52.730;6.964;2022-09-12T14:19:19;6.30;;;4.45;;
59099;SDS011;44884;52.730;6.964;2022-09-12T14:21:46;4.28;;;3.88;;
59099;SDS011;44884;52.730;6.964;2022-09-12T14:24:12;6.57;;;4.55;;
59099;SDS011;44884;52.730;6.964;2022-09-12T14:26:39;4.60;;;4.07;;
59099;SDS011;44884;52.730;6.964;2022-09-12T14:29:07;4.03;;;3.58;;
59099;SDS011;44884;52.730;6.964;2022-09-12T14:31:34;5.63;;;4.35;;
59099;SDS011;44884;52.730;6.964;2022-09-12T14:34:08;5.32;;;3.90;;
59099;SDS011;44884;52.730;6.964;2022-09-12T14:36:41;5.57;;;3.97;;
59099;SDS011;44884;52.730;6.964;2022-09-12T14:42:00;3.70;;;3.40;;
59099;SDS011;44884;52.730;6.964;2022-09-12T14:44:27;6.30;;;4.28;;
59099;SDS011;44884;52.730;6.964;2022-09-12T14:46:53;4.88;;;4.20;;
59099;SDS011;44884;52.730;6.964;2022-09-12T14:49:22;4.75;;;3.75;;
59099;SDS011;44884;52.730;6.964;2022-09-12T14:51:53;4.05;;;3.75;;
59099;SDS011;44884;52.730;6.964;2022-09-12T14:54:33;4.80;;;4.28;;
59099;SDS011;44884;52.730;6.964;2022-09-12T14:57:04;4.13;;;3.78;;
59099;SDS011;44884;52.730;6.964;2022-09-12T15:05:24;3.60;;;3.30;;
59099;SDS011;44884;52.730;6.964;2022-09-12T15:07:31;5.68;;;3.53;;
59099;SDS011;44884;52.730;6.964;2022-09-12T15:09:58;3.53;;;3.15;;
59099;SDS011;44884;52.730;6.964;2022-09-12T15:12:25;8.20;;;3.58;;
59099;SDS011;44884;52.730;6.964;2022-09-12T15:14:51;4.53;;;2.70;;
59099;SDS011;44884;52.730;6.964;2022-09-12T15:17:17;3.85;;;3.33;;
59099;SDS011;44884;52.730;6.964;2022-09-12T15:19:43;4.07;;;3.03;;
59099;SDS011;44884;52.730;6.964;2022-09-12T15:22:10;3.53;;;2.88;;
59099;SDS011;44884;52.730;6.964;2022-09-12T15:24:37;4.53;;;3.38;;
59099;SDS011;44884;52.730;6.964;2022-09-12T15:27:10;3.67;;;3.00;;
59099;SDS011;44884;52.730;6.964;2022-09-12T15:29:36;3.13;;;2.83;;
59099;SDS011;44884;52.730;6.964;2022-09-12T15:32:02;4.50;;;3.58;;
59099;SDS011;44884;52.730;6.964;2022-09-12T15:34:30;4.40;;;3.38;;
59099;SDS011;44884;52.730;6.964;2022-09-12T15:36:56;5.20;;;3.45;;
59099;SDS011;44884;52.730;6.964;2022-09-12T15:39:22;3.45;;;3.15;;
59099;SDS011;44884;52.730;6.964;2022-09-12T15:41:48;5.45;;;3.55;;
59099;SDS011;44884;52.730;6.964;2022-09-12T15:44:14;3.78;;;2.88;;
59099;SDS011;44884;52.730;6.964;2022-09-12T15:46:40;2.90;;;2.70;;
59099;SDS011;44884;52.730;6.964;2022-09-12T15:49:06;3.90;;;3.20;;
59099;SDS011;44884;52.730;6.964;2022-09-12T15:51:32;3.40;;;3.10;;
59099;SDS011;44884;52.730;6.964;2022-09-12T15:53:58;4.30;;;3.28;;
59099;SDS011;44884;52.730;6.964;2022-09-12T15:56:25;3.42;;;3.13;;
59099;SDS011;44884;52.730;6.964;2022-09-12T15:58:51;6.00;;;3.35;;
59099;SDS011;44884;52.730;6.964;2022-09-12T16:01:17;3.75;;;3.45;;
59099;SDS011;44884;52.730;6.964;2022-09-12T16:03:46;3.72;;;3.33;;
59099;SDS011;44884;52.730;6.964;2022-09-12T16:06:12;3.35;;;3.05;;
59099;SDS011;44884;52.730;6.964;2022-09-12T16:08:39;3.30;;;3.00;;
59099;SDS011;44884;52.730;6.964;2022-09-12T16:11:18;5.63;;;3.33;;
59099;SDS011;44884;52.730;6.964;2022-09-12T16:13:45;3.47;;;2.92;;
59099;SDS011;44884;52.730;6.964;2022-09-12T16:16:11;3.10;;;2.80;;
59099;SDS011;44884;52.730;6.964;2022-09-12T16:18:40;5.63;;;3.08;;
59099;SDS011;44884;52.730;6.964;2022-09-12T16:21:06;3.75;;;2.78;;
59099;SDS011;44884;52.730;6.964;2022-09-12T16:23:33;3.65;;;3.05;;
59099;SDS011;44884;52.730;6.964;2022-09-12T16:26:01;2.97;;;2.78;;
59099;SDS011;44884;52.730;6.964;2022-09-12T16:28:28;4.55;;;3.10;;
59099;SDS011;44884;52.730;6.964;2022-09-12T16:30:57;3.70;;;3.30;;
59099;SDS011;44884;52.730;6.964;2022-09-12T16:33:24;3.45;;;2.80;;
59099;SDS011;44884;52.730;6.964;2022-09-12T16:36:00;3.85;;;3.10;;
59099;SDS011;44884;52.730;6.964;2022-09-12T16:38:27;3.83;;;3.47;;
59099;SDS011;44884;52.730;6.964;2022-09-12T16:41:04;4.50;;;3.45;;
59099;SDS011;44884;52.730;6.964;2022-09-12T16:43:30;3.95;;;3.33;;
59099;SDS011;44884;52.730;6.964;2022-09-12T16:46:04;3.00;;;2.80;;
59099;SDS011;44884;52.730;6.964;2022-09-12T16:48:30;3.50;;;2.83;;
59099;SDS011;44884;52.730;6.964;2022-09-12T16:51:00;2.88;;;2.45;;
59099;SDS011;44884;52.730;6.964;2022-09-12T16:53:28;3.38;;;3.08;;
59099;SDS011;44884;52.730;6.964;2022-09-12T16:55:55;11.48;;;3.25;;